Time;durP1;ratioP1;P1;durP2;ratioP2;P2;SDS_P1;SDS_P2;PMS_P1;PMS_P2;Temp;Humidity;BMP_temperature;BMP_pressure;BME280_temperature;BME280_humidity;BME280_pressure;Samples;Min_cycle;Max_cycle;Signal;HPM_P1;HPM_P2
2024/01/18 00:00:09;;;;;;;13.77;10.13;;;0.50;84.90;;;;;;5025083;28;20052;-83
2024/01/18 00:02:34;;;;;;;13.53;7.43;;;0.50;84.80;;;;;;5020715;28;20041;-83
2024/01/18 00:05:00;;;;;;;11.67;6.70;;;0.50;84.80;;;;;;5005562;28;20057;-82
2024/01/18 00:07:26;;;;;;;8.87;5.30;;;0.50;84.80;;;;;;5022910;28;20094;-83
2024/01/18 00:09:51;;;;;;;9.07;6.10;;;0.50;84.80;;;;;;5011560;28;20120;-83
2024/01/18 00:12:17;;;;;;;10.97;5.87;;;0.50;84.90;;;;;;5012776;28;20049;-84
2024/01/18 00:14:42;;;;;;;9.77;5.63;;;0.50;85.00;;;;;;5016937;28;20041;-83
2024/01/18 00:17:08;;;;;;;10.00;4.73;;;0.40;85.00;;;;;;5008397;28;20069;-83
2024/01/18 00:19:34;;;;;;;11.00;6.27;;;0.40;85.00;;;;;;5027391;28;20125;-83
2024/01/18 00:22:00;;;;;;;12.73;7.33;;;0.40;85.10;;;;;;5009369;28;20054;-84
2024/01/18 00:24:25;;;;;;;12.53;6.73;;;0.40;85.20;;;;;;5002859;28;20041;-84
2024/01/18 00:26:51;;;;;;;8.43;5.97;;;0.40;85.20;;;;;;5028163;28;20038;-84
2024/01/18 00:29:16;;;;;;;9.70;6.63;;;0.40;85.30;;;;;;5027433;28;20265;-82
2024/01/18 00:31:42;;;;;;;10.17;6.70;;;0.40;85.30;;;;;;5024435;28;20045;-82
2024/01/18 00:34:07;;;;;;;10.13;6.60;;;0.40;85.40;;;;;;5024239;28;20121;-82
2024/01/18 00:36:33;;;;;;;9.47;6.27;;;0.40;85.40;;;;;;5021388;28;20500;-81
2024/01/18 00:38:59;;;;;;;9.87;6.23;;;0.50;85.50;;;;;;5020332;28;20069;-82
2024/01/18 00:41:31;;;;;;;12.40;6.97;;;0.40;85.40;;;;;;5024991;28;20053;-82
2024/01/18 00:43:57;;;;;;;10.13;6.80;;;0.40;85.50;;;;;;5018912;28;20046;-82
2024/01/18 00:46:22;;;;;;;11.90;7.07;;;0.50;85.50;;;;;;5027187;28;20094;-82
2024/01/18 00:48:48;;;;;;;11.17;5.93;;;0.40;85.50;;;;;;5008529;28;20045;-82
2024/01/18 00:51:14;;;;;;;10.30;6.10;;;0.40;85.50;;;;;;5021926;28;20045;-82
2024/01/18 00:53:39;;;;;;;8.73;5.97;;;0.40;85.60;;;;;;5003242;28;20109;-83
2024/01/18 00:56:09;;;;;;;9.07;5.30;;;0.40;85.60;;;;;;5013487;28;20044;-82
2024/01/18 00:58:36;;;;;;;7.33;5.00;;;0.40;85.60;;;;;;5026892;28;20120;-83
2024/01/18 01:01:02;;;;;;;9.97;5.00;;;0.40;85.60;;;;;;5022687;28;20088;-83
2024/01/18 01:03:27;;;;;;;9.93;5.67;;;0.40;85.50;;;;;;5023951;28;20042;-82
2024/01/18 01:05:53;;;;;;;9.67;5.03;;;0.40;85.50;;;;;;5026758;28;20029;-82
2024/01/18 01:08:18;;;;;;;7.17;4.17;;;0.40;85.60;;;;;;5025972;28;20050;-82
2024/01/18 01:10:44;;;;;;;10.47;4.40;;;0.40;86.10;;;;;;5027085;28;20126;-82
2024/01/18 01:13:10;;;;;;;7.37;3.57;;;0.40;85.60;;;;;;5026536;28;22477;-82
2024/01/18 01:15:35;;;;;;;6.40;3.97;;;0.40;85.60;;;;;;5023926;28;20168;-83
2024/01/18 01:18:01;;;;;;;5.93;2.97;;;0.40;85.60;;;;;;5009239;28;20048;-82
2024/01/18 01:20:27;;;;;;;6.83;4.40;;;0.40;85.50;;;;;;5029180;28;20048;-83
2024/01/18 01:22:52;;;;;;;6.50;3.73;;;0.40;85.50;;;;;;5022123;28;20037;-83
2024/01/18 01:25:18;;;;;;;6.13;3.20;;;0.40;85.50;;;;;;5029029;28;20030;-83
2024/01/18 01:27:43;;;;;;;5.70;3.47;;;0.40;85.50;;;;;;5028489;28;20040;-82
2024/01/18 01:30:10;;;;;;;5.97;2.90;;;0.40;85.50;;;;;;5026394;28;20136;-82
2024/01/18 01:32:36;;;;;;;6.90;2.60;;;0.40;85.50;;;;;;5006471;28;20052;-82
2024/01/18 01:35:01;;;;;;;5.73;3.17;;;0.40;85.50;;;;;;5023558;28;20125;-82
2024/01/18 01:37:27;;;;;;;4.53;3.00;;;0.40;85.50;;;;;;5009469;28;20133;-82
2024/01/18 01:39:52;;;;;;;4.93;2.97;;;0.40;85.50;;;;;;5028742;28;20065;-82
2024/01/18 01:42:18;;;;;;;5.80;3.33;;;0.40;85.60;;;;;;5031160;28;20046;-82
2024/01/18 01:44:44;;;;;;;7.73;3.00;;;0.40;85.70;;;;;;5010745;28;20092;-82
2024/01/18 01:47:09;;;;;;;4.40;2.30;;;0.40;85.70;;;;;;5010986;28;20065;-82
2024/01/18 01:49:36;;;;;;;5.63;2.60;;;0.40;85.80;;;;;;5029320;28;20516;-82
2024/01/18 01:52:02;;;;;;;4.60;2.60;;;0.40;85.80;;;;;;5029258;28;20037;-82
2024/01/18 01:54:29;;;;;;;5.67;3.13;;;0.40;85.80;;;;;;5030332;28;20091;-82
2024/01/18 01:56:58;;;;;;;6.43;2.80;;;0.40;85.80;;;;;;5026512;28;20048;-82
2024/01/18 01:59:24;;;;;;;7.07;2.83;;;0.40;85.80;;;;;;5021107;28;20038;-81
2024/01/18 02:01:52;;;;;;;5.47;2.90;;;0.40;85.80;;;;;;5013810;28;20065;-81
2024/01/18 02:04:18;;;;;;;5.03;2.60;;;0.40;85.60;;;;;;5026087;28;20560;-82
2024/01/18 02:06:45;;;;;;;7.33;2.70;;;0.30;85.50;;;;;;5030745;28;20037;-82
2024/01/18 02:09:11;;;;;;;5.33;2.60;;;0.30;85.60;;;;;;5022253;28;20049;-82
2024/01/18 02:11:37;;;;;;;3.97;2.57;;;0.40;85.70;;;;;;5031082;28;20037;-82
2024/01/18 02:14:03;;;;;;;3.97;2.87;;;0.30;85.70;;;;;;5031042;28;20029;-82
2024/01/18 02:16:30;;;;;;;3.90;2.27;;;0.30;85.80;;;;;;5033037;28;20037;-82
2024/01/18 02:18:56;;;;;;;4.07;2.20;;;0.30;85.80;;;;;;5008560;28;20038;-81
2024/01/18 02:21:22;;;;;;;4.20;2.00;;;0.30;85.80;;;;;;5011774;28;20034;-81
2024/01/18 02:24:03;;;;;;;5.73;2.37;;;0.30;85.90;;;;;;5023301;28;20120;-82
2024/01/18 02:26:29;;;;;;;5.70;2.37;;;0.30;85.90;;;;;;5019374;28;20045;-82
2024/01/18 02:28:58;;;;;;;5.83;2.10;;;0.30;85.90;;;;;;5022133;28;20034;-81
2024/01/18 02:31:24;;;;;;;4.53;2.13;;;0.30;85.90;;;;;;5008376;28;20064;-81
2024/01/18 02:33:50;;;;;;;5.83;2.20;;;0.20;85.80;;;;;;5024629;28;20037;-82
2024/01/18 02:36:18;;;;;;;3.77;2.00;;;0.30;85.90;;;;;;5022861;28;20087;-81
2024/01/18 02:38:44;;;;;;;5.53;2.40;;;0.30;85.80;;;;;;5007016;28;20064;-81
2024/01/18 02:41:10;;;;;;;5.17;1.83;;;0.20;85.70;;;;;;5010064;28;20041;-82
2024/01/18 02:43:36;;;;;;;4.63;2.00;;;0.20;85.70;;;;;;5021827;28;20106;-82
2024/01/18 02:46:01;;;;;;;4.73;1.90;;;0.20;85.70;;;;;;5009245;28;20037;-81
2024/01/18 02:48:28;;;;;;;4.80;1.83;;;0.20;85.70;;;;;;5030961;28;20095;-81
2024/01/18 02:50:54;;;;;;;3.63;2.73;;;0.20;85.80;;;;;;5012766;28;20480;-81
2024/01/18 02:53:20;;;;;;;5.13;1.77;;;0.20;85.80;;;;;;5012675;28;20038;-81
2024/01/18 02:55:47;;;;;;;3.60;1.47;;;0.20;85.80;;;;;;5029671;28;20030;-81
2024/01/18 02:58:12;;;;;;;5.60;1.73;;;0.20;85.80;;;;;;5027787;28;20045;-81
2024/01/18 03:00:38;;;;;;;3.17;1.80;;;0.20;85.80;;;;;;5014531;28;20404;-82
2024/01/18 03:03:04;;;;;;;3.17;1.80;;;0.20;85.80;;;;;;5030835;28;20041;-82
2024/01/18 03:05:31;;;;;;;4.43;1.57;;;0.10;85.80;;;;;;5027668;28;20057;-81
2024/01/18 03:07:57;;;;;;;5.63;2.50;;;0.10;85.80;;;;;;5023769;28;20041;-81
2024/01/18 03:10:22;;;;;;;5.67;1.53;;;0.10;85.80;;;;;;5026460;28;20045;-81
2024/01/18 03:12:48;;;;;;;3.50;1.57;;;0.10;85.80;;;;;;5029794;28;20041;-81
2024/01/18 03:15:14;;;;;;;3.10;1.50;;;0.10;85.80;;;;;;5031547;28;20097;-81
2024/01/18 03:17:39;;;;;;;3.23;1.70;;;0.10;85.80;;;;;;5027434;28;20072;-81
2024/01/18 03:20:07;;;;;;;3.43;1.50;;;0.10;85.80;;;;;;5030289;28;20502;-81
2024/01/18 03:22:39;;;;;;;4.23;1.30;;;0.00;85.80;;;;;;5007735;28;20048;-81
2024/01/18 03:25:05;;;;;;;4.80;1.40;;;0.10;85.90;;;;;;5030602;28;20029;-81
2024/01/18 03:27:31;;;;;;;2.70;1.40;;;0.00;85.80;;;;;;5018209;28;20095;-81
2024/01/18 03:29:56;;;;;;;3.20;1.33;;;0.00;85.80;;;;;;5028891;28;20038;-81
2024/01/18 03:32:22;;;;;;;3.97;1.57;;;0.10;85.80;;;;;;5025318;28;20042;-81
2024/01/18 03:34:48;;;;;;;4.00;1.50;;;0.00;85.80;;;;;;5023206;28;20033;-80
2024/01/18 03:37:14;;;;;;;3.73;1.27;;;0.00;85.80;;;;;;5029112;28;20076;-81
2024/01/18 03:39:40;;;;;;;2.43;1.10;;;0.00;85.80;;;;;;5012480;28;20034;-81
2024/01/18 03:42:05;;;;;;;1.90;1.10;;;0.00;86.20;;;;;;5028945;28;20045;-81
2024/01/18 03:44:33;;;;;;;3.23;1.07;;;0.00;85.80;;;;;;5025371;28;20481;-81
2024/01/18 03:47:00;;;;;;;2.40;1.10;;;0.00;85.70;;;;;;5024497;28;20054;-81
2024/01/18 03:49:26;;;;;;;3.20;1.40;;;0.00;85.70;;;;;;5028752;28;20045;-81
2024/01/18 03:51:51;;;;;;;5.00;1.27;;;0.00;85.60;;;;;;5026020;28;20040;-81
2024/01/18 03:54:18;;;;;;;3.30;1.10;;;-0.10;85.50;;;;;;5012172;28;20037;-81
2024/01/18 03:56:44;;;;;;;2.70;1.10;;;-0.10;85.50;;;;;;5008866;28;20127;-81
2024/01/18 03:59:14;;;;;;;3.07;1.30;;;-0.10;85.50;;;;;;5026558;28;20504;-81
2024/01/18 04:01:39;;;;;;;3.10;1.20;;;-0.10;85.60;;;;;;5027719;28;20042;-81
2024/01/18 04:04:05;;;;;;;5.60;1.50;;;-0.10;85.60;;;;;;5028399;28;20038;-81
2024/01/18 04:06:31;;;;;;;4.33;1.60;;;-0.10;85.60;;;;;;5010960;28;20045;-81
2024/01/18 04:08:56;;;;;;;6.10;1.90;;;-0.10;85.60;;;;;;5027854;28;20069;-81
2024/01/18 04:11:22;;;;;;;3.57;1.20;;;-0.10;85.60;;;;;;5026205;28;20038;-81
2024/01/18 04:13:47;;;;;;;4.13;1.43;;;-0.10;85.60;;;;;;5013767;28;20034;-81
2024/01/18 04:16:13;;;;;;;2.97;1.73;;;-0.20;85.60;;;;;;5011970;28;20033;-81
2024/01/18 04:18:39;;;;;;;2.60;1.10;;;-0.20;85.60;;;;;;5015458;28;20037;-81
2024/01/18 04:21:05;;;;;;;2.97;1.13;;;-0.20;85.60;;;;;;5029658;28;20407;-81
2024/01/18 04:23:30;;;;;;;3.20;1.27;;;-0.20;85.40;;;;;;5010309;28;20037;-81
2024/01/18 04:25:56;;;;;;;3.47;1.30;;;-0.20;85.40;;;;;;5026554;28;20044;-81
2024/01/18 04:28:22;;;;;;;2.53;1.13;;;-0.30;85.30;;;;;;5012873;28;20041;-80
2024/01/18 04:30:48;;;;;;;1.60;1.07;;;-0.30;85.30;;;;;;5011701;28;20516;-81
2024/01/18 04:33:14;;;;;;;2.30;1.20;;;-0.30;85.30;;;;;;5028227;28;20037;-81
2024/01/18 04:35:40;;;;;;;4.13;1.23;;;-0.30;85.30;;;;;;5013100;28;20037;-81
2024/01/18 04:38:06;;;;;;;2.70;1.07;;;-0.30;85.30;;;;;;5022761;28;20065;-81
2024/01/18 04:40:33;;;;;;;1.70;0.90;;;-0.30;85.30;;;;;;5020447;28;20443;-81
2024/01/18 04:42:58;;;;;;;4.73;1.33;;;-0.30;85.30;;;;;;5028016;28;20398;-81
2024/01/18 04:45:24;;;;;;;2.70;1.07;;;-0.30;85.40;;;;;;5004749;28;20048;-81
2024/01/18 04:47:52;;;;;;;5.03;1.20;;;-0.30;85.40;;;;;;5023979;28;20049;-81
2024/01/18 04:50:20;;;;;;;2.70;0.90;;;-0.30;85.40;;;;;;5023017;28;20042;-81
2024/01/18 04:52:47;;;;;;;3.03;1.20;;;-0.30;85.40;;;;;;5021444;28;20542;-81
2024/01/18 04:55:13;;;;;;;2.87;1.03;;;-0.30;85.50;;;;;;5024822;28;20041;-81
2024/01/18 04:57:39;;;;;;;2.67;0.90;;;-0.30;85.40;;;;;;5024928;28;20052;-81
2024/01/18 05:00:10;;;;;;;2.70;0.97;;;-0.40;85.30;;;;;;5008798;28;20452;-81
2024/01/18 05:02:37;;;;;;;3.17;1.17;;;-0.40;85.30;;;;;;5027008;28;20046;-81
2024/01/18 05:05:02;;;;;;;3.03;1.13;;;-0.40;85.30;;;;;;5006507;28;20030;-81
2024/01/18 05:07:28;;;;;;;3.30;1.20;;;-0.40;85.30;;;;;;5008694;28;20036;-81
2024/01/18 05:09:53;;;;;;;3.30;1.27;;;-0.40;85.30;;;;;;5010337;28;20037;-81
2024/01/18 05:12:19;;;;;;;3.43;1.20;;;-0.40;85.30;;;;;;5023918;28;20053;-81
2024/01/18 05:14:45;;;;;;;2.77;1.23;;;-0.40;85.30;;;;;;5024623;28;20037;-81
2024/01/18 05:17:12;;;;;;;4.70;1.00;;;-0.40;85.30;;;;;;5025592;28;20049;-81
2024/01/18 05:19:38;;;;;;;4.47;1.20;;;-0.40;85.40;;;;;;5023904;28;20125;-81
2024/01/18 05:22:04;;;;;;;3.60;1.30;;;-0.50;85.40;;;;;;5020784;28;20068;-81
2024/01/18 05:24:30;;;;;;;2.57;1.10;;;-0.50;85.40;;;;;;5030209;28;20034;-81
2024/01/18 05:26:56;;;;;;;1.93;1.10;;;-0.50;85.50;;;;;;5025668;28;20057;-81
2024/01/18 05:29:22;;;;;;;2.73;1.13;;;-0.50;85.50;;;;;;5024987;28;20393;-81
2024/01/18 05:31:47;;;;;;;1.63;0.83;;;-0.50;85.60;;;;;;5022284;28;20045;-81
2024/01/18 05:34:13;;;;;;;2.40;1.47;;;-0.50;85.60;;;;;;5021299;28;20072;-81
2024/01/18 05:36:39;;;;;;;1.50;0.80;;;-0.50;85.60;;;;;;5005724;28;20057;-81
2024/01/18 05:39:04;;;;;;;1.67;0.97;;;-0.50;85.60;;;;;;5021838;28;20034;-81
2024/01/18 05:41:30;;;;;;;2.83;1.13;;;-0.50;85.60;;;;;;5022516;28;20029;-81
2024/01/18 05:43:56;;;;;;;2.73;1.37;;;-0.50;85.60;;;;;;5018421;28;20084;-81
2024/01/18 05:46:22;;;;;;;1.97;0.90;;;-0.50;85.70;;;;;;5005208;28;20463;-81
2024/01/18 05:48:49;;;;;;;4.53;1.00;;;-0.50;85.70;;;;;;5018458;28;20049;-81
2024/01/18 05:51:15;;;;;;;2.07;0.80;;;-0.50;85.80;;;;;;5001632;28;20030;-82
2024/01/18 05:53:42;;;;;;;4.10;0.77;;;-0.50;85.80;;;;;;5021895;28;20049;-81
2024/01/18 05:56:08;;;;;;;2.53;1.00;;;-0.50;85.80;;;;;;5015250;28;20034;-82
2024/01/18 05:58:33;;;;;;;2.77;1.10;;;-0.50;85.80;;;;;;5021280;28;20034;-82
2024/01/18 06:01:00;;;;;;;2.03;0.80;;;-0.50;85.70;;;;;;5019903;28;20104;-82
2024/01/18 06:03:26;;;;;;;5.63;1.40;;;-0.50;85.70;;;;;;5016586;28;20137;-82
2024/01/18 06:05:52;;;;;;;1.53;0.80;;;-0.50;85.70;;;;;;5023867;28;20056;-82
2024/01/18 06:08:18;;;;;;;4.17;1.37;;;-0.50;85.70;;;;;;5022812;28;20038;-82
2024/01/18 06:10:43;;;;;;;3.47;0.80;;;-0.50;85.60;;;;;;5019452;28;20038;-82
2024/01/18 06:13:09;;;;;;;3.40;0.80;;;-0.50;85.60;;;;;;5009817;28;20088;-81
2024/01/18 06:15:36;;;;;;;2.00;0.80;;;-0.50;85.60;;;;;;5026908;28;20060;-81
2024/01/18 06:18:03;;;;;;;2.20;1.00;;;-0.60;85.40;;;;;;5026495;28;20044;-81
2024/01/18 06:20:30;;;;;;;2.87;1.10;;;-0.60;85.40;;;;;;5024748;28;20045;-82
2024/01/18 06:22:57;;;;;;;2.57;1.10;;;-0.60;85.30;;;;;;5028485;28;20423;-82
2024/01/18 06:25:24;;;;;;;3.03;1.23;;;-0.60;85.10;;;;;;5026116;28;20041;-82
2024/01/18 06:27:50;;;;;;;3.83;0.83;;;-0.60;85.10;;;;;;5007757;28;20064;-82
2024/01/18 06:30:18;;;;;;;4.00;0.90;;;-0.60;85.20;;;;;;5024017;28;20053;-81
2024/01/18 06:32:43;;;;;;;5.47;0.97;;;-0.60;85.30;;;;;;5027995;28;20033;-81
2024/01/18 06:35:10;;;;;;;4.07;1.10;;;-0.60;85.40;;;;;;5029926;28;20502;-81
2024/01/18 06:37:36;;;;;;;7.60;0.93;;;-0.60;85.50;;;;;;5014714;28;20033;-81
2024/01/18 06:40:02;;;;;;;1.97;0.60;;;-0.60;85.60;;;;;;5015282;28;20037;-81
2024/01/18 06:42:28;;;;;;;3.00;0.90;;;-0.60;85.60;;;;;;5028308;28;20067;-82
2024/01/18 06:44:54;;;;;;;2.00;0.90;;;-0.60;85.70;;;;;;5025624;28;20061;-82
2024/01/18 06:47:20;;;;;;;2.83;0.97;;;-0.60;85.70;;;;;;5026772;28;20508;-82
2024/01/18 06:49:45;;;;;;;3.67;1.03;;;-0.60;85.80;;;;;;5029004;28;20129;-82
2024/01/18 06:52:11;;;;;;;1.50;0.70;;;-0.60;85.80;;;;;;5027011;28;20558;-82
2024/01/18 06:54:37;;;;;;;1.50;0.60;;;-0.60;85.90;;;;;;5025222;28;20512;-82
2024/01/18 06:57:03;;;;;;;2.83;0.77;;;-0.60;85.90;;;;;;5007840;28;20084;-82
2024/01/18 06:59:29;;;;;;;5.30;0.70;;;-0.70;85.90;;;;;;5029395;28;20041;-82
2024/01/18 07:01:55;;;;;;;2.27;0.77;;;-0.70;86.00;;;;;;5026360;28;20049;-82
2024/01/18 07:04:21;;;;;;;2.13;0.77;;;-0.60;86.10;;;;;;5012229;28;20069;-82
2024/01/18 07:06:47;;;;;;;2.20;1.17;;;-0.60;86.10;;;;;;5027912;28;20123;-82
2024/01/18 07:09:12;;;;;;;2.17;0.73;;;-0.60;86.10;;;;;;5026332;28;20038;-82
2024/01/18 07:11:38;;;;;;;1.67;0.50;;;-0.60;86.20;;;;;;5013212;28;20056;-82
2024/01/18 07:14:04;;;;;;;2.67;0.70;;;-0.60;86.20;;;;;;5022917;28;20038;-82
2024/01/18 07:16:29;;;;;;;3.20;0.83;;;-0.60;86.20;;;;;;5025418;28;20049;-83
2024/01/18 07:18:55;;;;;;;2.87;0.90;;;-0.70;86.20;;;;;;5028831;28;20033;-83
2024/01/18 07:21:21;;;;;;;5.73;0.90;;;-0.70;86.20;;;;;;5027796;28;20048;-83
2024/01/18 07:23:46;;;;;;;2.23;0.60;;;-0.70;86.30;;;;;;5006045;28;20107;-83
2024/01/18 07:26:12;;;;;;;2.13;0.70;;;-0.60;86.40;;;;;;5011744;28;20084;-83
2024/01/18 07:28:38;;;;;;;2.87;0.90;;;-0.40;86.50;;;;;;5010315;28;20064;-83
2024/01/18 07:31:03;;;;;;;2.13;0.60;;;-0.70;86.30;;;;;;5023493;28;20161;-83
2024/01/18 07:33:29;;;;;;;1.57;0.70;;;-0.60;86.80;;;;;;5024569;28;20038;-83
2024/01/18 07:35:55;;;;;;;2.57;0.80;;;-0.60;86.40;;;;;;5008302;28;20057;-83
2024/01/18 07:38:24;;;;;;;1.50;0.77;;;-0.70;86.30;;;;;;5022718;28;20037;-84
2024/01/18 07:40:49;;;;;;;3.37;1.00;;;-0.70;86.40;;;;;;5002445;28;20037;-83
2024/01/18 07:43:15;;;;;;;3.27;0.90;;;-0.70;86.40;;;;;;5021795;28;20056;-83
2024/01/18 07:45:41;;;;;;;2.40;0.83;;;-0.70;86.40;;;;;;5025637;28;20408;-83
2024/01/18 07:48:07;;;;;;;6.17;1.10;;;-0.70;86.40;;;;;;5028051;28;20103;-83
2024/01/18 07:50:32;;;;;;;3.17;1.03;;;-0.70;86.40;;;;;;5030738;28;20045;-82
2024/01/18 07:52:58;;;;;;;2.20;0.80;;;-0.70;86.40;;;;;;5025350;28;20509;-84
2024/01/18 07:55:25;;;;;;;4.43;1.23;;;-0.70;86.40;;;;;;5010647;28;20029;-84
2024/01/18 07:57:51;;;;;;;4.33;0.97;;;-0.70;86.40;;;;;;5004899;28;20046;-84
2024/01/18 08:00:17;;;;;;;4.10;1.00;;;-0.70;86.40;;;;;;5021939;28;20088;-85
2024/01/18 08:02:43;;;;;;;3.53;1.17;;;-0.60;86.50;;;;;;5008653;28;20060;-85
2024/01/18 08:05:08;;;;;;;3.63;1.60;;;-0.70;86.40;;;;;;5023379;28;20034;-85
2024/01/18 08:07:34;;;;;;;3.83;1.53;;;-0.70;86.40;;;;;;5007775;28;20148;-84
2024/01/18 08:10:00;;;;;;;5.30;1.03;;;-0.70;86.40;;;;;;5020447;28;20056;-84
2024/01/18 08:12:25;;;;;;;4.33;0.87;;;-0.70;86.40;;;;;;5021175;28;20365;-84
2024/01/18 08:14:51;;;;;;;2.43;0.90;;;-0.70;86.40;;;;;;5025947;28;20037;-84
2024/01/18 08:17:17;;;;;;;3.03;0.90;;;-0.70;86.40;;;;;;5005136;28;20045;-84
2024/01/18 08:19:43;;;;;;;3.20;1.33;;;-0.70;86.40;;;;;;5022143;28;20054;-84
2024/01/18 08:22:11;;;;;;;2.83;0.93;;;-0.70;86.40;;;;;;5023406;28;20073;-85
2024/01/18 08:24:37;;;;;;;2.03;0.97;;;-0.70;86.50;;;;;;5019135;28;20048;-84
2024/01/18 08:27:03;;;;;;;2.33;0.90;;;-0.70;86.50;;;;;;5010129;28;20459;-84
2024/01/18 08:29:29;;;;;;;2.67;0.90;;;-0.70;86.50;;;;;;5001726;28;20037;-84
2024/01/18 08:31:56;;;;;;;4.30;1.43;;;-0.70;86.60;;;;;;5008651;28;20103;-85
2024/01/18 08:34:21;;;;;;;0.97;0.77;;;-0.70;86.60;;;;;;5022518;28;20034;-85
2024/01/18 08:36:47;;;;;;;4.53;1.03;;;-0.60;86.70;;;;;;5019015;28;20082;-85
2024/01/18 08:39:12;;;;;;;4.27;1.30;;;-0.60;86.80;;;;;;5012438;28;20067;-85
2024/01/18 08:41:38;;;;;;;4.03;1.40;;;-0.60;87.10;;;;;;5023228;28;20105;-85
2024/01/18 08:44:05;;;;;;;5.40;1.30;;;-0.60;87.60;;;;;;5005959;28;20038;-85
2024/01/18 08:46:30;;;;;;;6.27;1.90;;;-0.50;88.00;;;;;;5001037;28;20060;-83
2024/01/18 08:48:56;;;;;;;5.47;1.50;;;-0.40;88.40;;;;;;5004018;28;20433;-84
2024/01/18 08:51:22;;;;;;;4.07;1.27;;;-0.40;88.50;;;;;;5005640;28;20042;-83
2024/01/18 08:53:47;;;;;;;3.87;1.37;;;-0.40;88.50;;;;;;4997041;28;20056;-83
2024/01/18 08:56:13;;;;;;;5.87;1.73;;;-0.30;88.50;;;;;;5008449;28;20037;-82
2024/01/18 08:58:39;;;;;;;2.37;1.27;;;-0.30;88.50;;;;;;5007265;28;20041;-82
2024/01/18 09:01:05;;;;;;;3.00;1.03;;;-0.30;88.50;;;;;;5010301;28;20089;-82
2024/01/18 09:03:31;;;;;;;4.97;1.47;;;-0.30;88.60;;;;;;5008803;28;20041;-82
2024/01/18 09:05:57;;;;;;;4.50;1.13;;;-0.20;88.80;;;;;;5005251;28;20505;-82
2024/01/18 09:08:23;;;;;;;3.90;1.33;;;-0.20;88.90;;;;;;5026622;28;20179;-82
2024/01/18 09:10:49;;;;;;;5.20;1.13;;;-0.10;89.30;;;;;;5020825;28;20414;-83
2024/01/18 09:13:15;;;;;;;4.33;1.00;;;-0.10;89.70;;;;;;5030908;28;20049;-82
2024/01/18 09:15:41;;;;;;;2.80;1.10;;;0.00;90.00;;;;;;5016578;28;20068;-82
2024/01/18 09:18:07;;;;;;;3.70;1.10;;;0.20;90.20;;;;;;5008424;28;20096;-82
2024/01/18 09:20:33;;;;;;;2.17;1.00;;;0.30;90.30;;;;;;5022205;28;20044;-82
2024/01/18 09:22:59;;;;;;;5.20;1.20;;;0.50;90.50;;;;;;5019224;28;20034;-83
2024/01/18 09:25:24;;;;;;;2.60;0.80;;;0.60;90.20;;;;;;5005499;28;20065;-84
2024/01/18 09:27:51;;;;;;;6.03;1.03;;;0.70;90.20;;;;;;5020322;28;20121;-82
2024/01/18 09:30:16;;;;;;;3.43;1.00;;;0.90;90.10;;;;;;5021564;28;20451;-82
2024/01/18 09:32:42;;;;;;;3.80;1.17;;;1.00;90.00;;;;;;5022354;28;20143;-82
2024/01/18 09:35:08;;;;;;;2.90;0.83;;;1.20;89.70;;;;;;5018703;28;20041;-84
2024/01/18 09:37:35;;;;;;;3.60;1.17;;;1.30;89.30;;;;;;5008809;28;20029;-83
2024/01/18 09:40:01;;;;;;;4.20;1.13;;;1.60;89.00;;;;;;5028606;28;20171;-83
2024/01/18 09:42:32;;;;;;;3.30;0.80;;;1.50;88.40;;;;;;5024145;28;20503;-83
2024/01/18 09:45:04;;;;;;;2.23;0.97;;;1.60;88.20;;;;;;5008388;28;20044;-83
2024/01/18 09:47:30;;;;;;;3.73;1.00;;;1.60;87.90;;;;;;5017776;28;20053;-83
2024/01/18 09:49:58;;;;;;;3.80;1.00;;;1.70;87.80;;;;;;5000129;28;20060;-83
2024/01/18 09:52:24;;;;;;;2.33;0.73;;;1.80;87.70;;;;;;5004963;28;20056;-83
2024/01/18 09:54:49;;;;;;;3.07;1.03;;;1.90;87.60;;;;;;5004467;28;20034;-83
2024/01/18 09:57:30;;;;;;;4.23;0.80;;;1.90;87.50;;;;;;5005976;28;20140;-83
2024/01/18 09:59:59;;;;;;;2.30;1.10;;;2.00;87.50;;;;;;5027808;28;20063;-84
2024/01/18 10:02:26;;;;;;;1.53;0.67;;;2.00;87.40;;;;;;5025162;28;20208;-84
2024/01/18 10:05:00;;;;;;;2.93;1.07;;;2.10;87.30;;;;;;5026218;28;20033;-84
2024/01/18 10:07:26;;;;;;;3.22;0.90;;;2.20;87.20;;;;;;5016004;28;20091;-85
2024/01/18 10:09:51;;;;;;;2.87;1.00;;;2.30;87.00;;;;;;5021622;28;20038;-85
2024/01/18 10:12:17;;;;;;;3.10;0.90;;;2.30;86.90;;;;;;5008586;28;20459;-84
2024/01/18 10:14:44;;;;;;;4.53;0.97;;;2.30;86.70;;;;;;5023074;28;20037;-84
2024/01/18 10:17:22;;;;;;;2.80;0.70;;;2.40;86.60;;;;;;5018737;28;20045;-84
2024/01/18 10:20:13;;;;;;;2.53;1.03;;;2.40;86.30;;;;;;5020125;28;20068;-84
2024/01/18 10:22:40;;;;;;;3.47;1.00;;;2.50;86.00;;;;;;5002042;28;20528;-84
2024/01/18 10:25:12;;;;;;;4.23;0.90;;;2.50;85.90;;;;;;5022305;28;20042;-84
2024/01/18 10:27:41;;;;;;;3.93;1.07;;;2.50;85.80;;;;;;5005970;28;20084;-84
2024/01/18 10:30:10;;;;;;;3.08;1.17;;;2.50;85.60;;;;;;5024775;28;20034;-84
2024/01/18 10:32:38;;;;;;;6.23;1.10;;;2.50;85.60;;;;;;5009074;28;20033;-84
2024/01/18 10:35:04;;;;;;;3.13;1.40;;;2.50;85.60;;;;;;5006678;28;20458;-84
2024/01/18 10:37:30;;;;;;;3.10;1.10;;;2.50;85.70;;;;;;5000928;28;20038;-84
2024/01/18 10:39:55;;;;;;;3.15;0.80;;;2.50;85.90;;;;;;5024388;28;20507;-84
2024/01/18 10:42:22;;;;;;;3.90;0.98;;;2.60;86.20;;;;;;5028717;28;20044;-83
2024/01/18 10:44:50;;;;;;;5.00;1.23;;;2.60;86.50;;;;;;5004276;28;20041;-84
2024/01/18 10:47:16;;;;;;;5.85;1.30;;;2.60;87.10;;;;;;5029081;28;20094;-84
2024/01/18 10:49:45;;;;;;;4.00;1.00;;;2.60;86.80;;;;;;5023584;28;20128;-84
2024/01/18 10:52:15;;;;;;;2.05;0.60;;;2.70;87.00;;;;;;5005036;28;20412;-84
2024/01/18 10:54:41;;;;;;;3.47;0.90;;;2.90;87.20;;;;;;5004926;28;20042;-84
2024/01/18 10:57:07;;;;;;;1.63;0.50;;;2.70;87.00;;;;;;5000667;28;20045;-84
2024/01/18 10:59:32;;;;;;;3.55;0.40;;;2.70;87.10;;;;;;5007152;28;20091;-84
2024/01/18 11:01:59;;;;;;;4.17;1.87;;;2.80;87.20;;;;;;5005771;28;20034;-84
2024/01/18 11:04:30;;;;;;;3.03;1.17;;;2.80;87.40;;;;;;5019207;28;20041;-83
2024/01/18 11:06:58;;;;;;;2.78;0.80;;;2.80;87.50;;;;;;5020694;28;20512;-84
2024/01/18 11:09:26;;;;;;;6.32;1.00;;;2.80;87.30;;;;;;5029294;28;20041;-83
2024/01/18 11:11:53;;;;;;;3.87;1.20;;;3.40;87.50;;;;;;5006061;28;20029;-84
2024/01/18 11:14:20;;;;;;;4.53;1.33;;;2.80;87.10;;;;;;5010833;28;20076;-83
2024/01/18 11:16:46;;;;;;;3.35;1.30;;;2.80;87.00;;;;;;5011677;28;20505;-83
2024/01/18 11:19:11;;;;;;;3.97;1.10;;;2.80;86.90;;;;;;5024784;28;20100;-84
2024/01/18 11:21:42;;;;;;;5.43;1.30;;;2.80;86.80;;;;;;5011189;28;20480;-84
2024/01/18 11:24:09;;;;;;;4.60;1.20;;;2.80;86.90;;;;;;5020970;28;20034;-84
2024/01/18 11:26:34;;;;;;;5.63;1.67;;;2.90;86.90;;;;;;5026450;28;20404;-84
2024/01/18 11:29:21;;;;;;;4.17;0.97;;;2.80;86.50;;;;;;5007471;28;20038;-84
2024/01/18 11:31:49;;;;;;;2.80;0.67;;;2.80;86.30;;;;;;5022193;28;20038;-84
2024/01/18 11:34:36;;;;;;;2.33;0.80;;;2.70;86.20;;;;;;5021557;28;20065;-84
2024/01/18 11:37:10;;;;;;;5.10;0.83;;;2.70;86.30;;;;;;5016512;28;20049;-84
2024/01/18 11:39:47;;;;;;;4.55;0.93;;;2.70;86.40;;;;;;5007822;28;20523;-84
2024/01/18 11:42:22;;;;;;;1.90;0.60;;;2.70;86.50;;;;;;5006270;28;20037;-84
2024/01/18 11:45:00;;;;;;;4.97;1.90;;;2.60;86.70;;;;;;5018529;28;20046;-82
2024/01/18 11:47:34;;;;;;;3.80;0.83;;;2.60;86.90;;;;;;5019926;28;21080;-83
2024/01/18 11:50:05;;;;;;;3.53;0.77;;;2.60;87.20;;;;;;5026865;28;20369;-83
2024/01/18 11:52:32;;;;;;;1.30;0.60;;;2.60;87.50;;;;;;5030917;28;20038;-83
2024/01/18 11:54:59;;;;;;;3.07;0.87;;;2.60;87.90;;;;;;5006225;28;20045;-84
2024/01/18 11:57:25;;;;;;;2.50;0.60;;;2.70;88.00;;;;;;5008679;28;20481;-83
2024/01/18 11:59:52;;;;;;;3.23;0.70;;;2.60;87.80;;;;;;5027180;28;20037;-84
2024/01/18 12:02:17;;;;;;;2.60;0.53;;;2.60;87.70;;;;;;5004456;28;20053;-83
2024/01/18 12:04:43;;;;;;;3.23;0.90;;;2.60;87.70;;;;;;5025700;28;20038;-84
2024/01/18 12:07:10;;;;;;;2.57;0.57;;;2.60;87.80;;;;;;5023058;28;20232;-82
2024/01/18 12:09:36;;;;;;;3.23;0.70;;;2.60;88.10;;;;;;5004453;28;20037;-83
2024/01/18 12:12:03;;;;;;;1.90;0.83;;;2.60;87.90;;;;;;5025134;28;20061;-84
2024/01/18 12:14:29;;;;;;;1.93;0.83;;;2.60;88.10;;;;;;5028465;28;20037;-82
2024/01/18 12:16:56;;;;;;;1.67;0.60;;;2.60;88.20;;;;;;5012958;28;20033;-82
2024/01/18 12:19:35;;;;;;;2.37;0.50;;;2.60;88.20;;;;;;5009692;28;20033;-82
2024/01/18 12:22:08;;;;;;;4.57;0.67;;;2.60;88.30;;;;;;5010306;28;20038;-83
2024/01/18 12:24:34;;;;;;;3.07;1.00;;;2.50;88.10;;;;;;5033663;28;20026;-83
2024/01/18 12:27:02;;;;;;;4.27;0.70;;;2.60;88.20;;;;;;5040943;28;20049;-84
2024/01/18 12:29:27;;;;;;;2.40;0.60;;;2.50;88.20;;;;;;5023002;28;20106;-83
2024/01/18 12:31:54;;;;;;;1.50;0.37;;;2.50;88.20;;;;;;5014399;28;20481;-83
2024/01/18 12:34:22;;;;;;;6.33;1.53;;;2.50;88.20;;;;;;5016255;28;20159;-83
2024/01/18 12:36:48;;;;;;;1.37;0.30;;;2.50;88.30;;;;;;5033296;28;20053;-83
2024/01/18 12:39:18;;;;;;;3.10;0.73;;;2.50;88.30;;;;;;5036070;28;20097;-83
2024/01/18 12:41:54;;;;;;;2.60;0.67;;;2.60;88.30;;;;;;5011817;28;20408;-83
2024/01/18 12:44:21;;;;;;;2.40;0.60;;;2.50;88.20;;;;;;5019587;28;20038;-83
2024/01/18 12:46:51;;;;;;;2.30;0.60;;;2.40;88.10;;;;;;5033011;28;20045;-83
2024/01/18 12:49:18;;;;;;;1.77;0.37;;;2.40;88.10;;;;;;5022019;28;20045;-83